createdAt,value
2022-11-30T00:01:13.226Z,76.7
2022-11-30T00:06:48.644Z,76.7
2022-11-30T00:12:24.361Z,76.9
2022-11-30T00:17:59.170Z,76.8
2022-11-30T00:23:35.186Z,76.8
2022-11-30T00:29:20.560Z,76.8
2022-11-30T00:34:55.799Z,76.8
2022-11-30T00:40:30.651Z,76.9
2022-11-30T00:46:06.519Z,76.9
2022-11-30T00:51:42.886Z,77
2022-11-30T00:57:27.613Z,76.9
2022-11-30T01:03:03.223Z,76.9
2022-11-30T01:08:39.771Z,77
2022-11-30T01:14:15.956Z,77.1
2022-11-30T01:19:51.192Z,77
2022-11-30T01:25:27.615Z,77
2022-11-30T01:31:02.829Z,76.9
2022-11-30T01:36:38.874Z,76.8
2022-11-30T01:42:14.246Z,76.8
2022-11-30T01:48:12.546Z,76.8
2022-11-30T01:53:45.612Z,76.9
2022-11-30T01:59:21.062Z,76.9
2022-11-30T02:04:57.490Z,76.8
2022-11-30T02:10:33.488Z,76.6
2022-11-30T02:16:08.793Z,76.5
2022-11-30T02:22:21.366Z,76.3
2022-11-30T02:27:56.632Z,76.2
2022-11-30T02:33:32.873Z,76.4
2022-11-30T02:39:08.252Z,76.3
2022-11-30T02:44:52.445Z,76.3
2022-11-30T02:50:27.628Z,76.2
2022-11-30T02:56:06.456Z,76.2
2022-11-30T03:01:41.675Z,76.2
2022-11-30T03:07:17.755Z,76.3
2022-11-30T03:12:53.425Z,76.6
2022-11-30T03:18:29.433Z,76.8
2022-11-30T03:24:04.374Z,76.9
2022-11-30T03:29:39.384Z,77.2
2022-11-30T03:35:23.683Z,77.3
2022-11-30T03:40:58.861Z,77.2
2022-11-30T03:46:55.420Z,76.9
2022-11-30T03:52:29.277Z,76.5
2022-11-30T03:58:13.393Z,76.5
2022-11-30T04:03:48.322Z,76.4
2022-11-30T04:09:27.524Z,76.1
2022-11-30T04:15:02.970Z,75.9
2022-11-30T04:20:41.196Z,75.5
2022-11-30T04:26:35.100Z,75.3
2022-11-30T04:32:17.455Z,75.5
2022-11-30T04:38:14.820Z,75.2
2022-11-30T04:43:57.798Z,75
2022-11-30T04:49:54.819Z,74.8
2022-11-30T04:55:27.373Z,74.9
2022-11-30T05:01:07.046Z,74.3
2022-11-30T05:06:44.876Z,74.1
2022-11-30T05:12:28.849Z,73.9
2022-11-30T05:18:05.112Z,74
2022-11-30T05:23:48.418Z,74.1
2022-11-30T05:29:24.771Z,74.1
2022-11-30T05:35:01.209Z,74.1
2022-11-30T05:40:36.428Z,73.9
2022-11-30T05:46:41.151Z,74.1
2022-11-30T05:52:15.055Z,74.3
2022-11-30T05:57:49.877Z,73.9
2022-11-30T06:03:25.143Z,73.9
2022-11-30T06:09:02.160Z,73.9
2022-11-30T06:14:38.323Z,74.2
2022-11-30T06:20:16.328Z,74.2
2022-11-30T06:25:51.529Z,74.2
2022-11-30T06:31:29.811Z,74.1
2022-11-30T06:37:04.811Z,74.1
2022-11-30T06:42:39.811Z,74
2022-11-30T06:48:38.270Z,74.1
2022-11-30T06:54:12.373Z,74.4
2022-11-30T06:59:47.700Z,74.1
2022-11-30T07:05:22.830Z,73.8
2022-11-30T07:11:19.186Z,74
2022-11-30T07:17:15.233Z,74
2022-11-30T07:22:59.715Z,73.8
2022-11-30T07:28:34.675Z,73.8
2022-11-30T07:34:11.017Z,73.7
2022-11-30T07:39:46.684Z,73.3
2022-11-30T07:45:22.012Z,73.2
2022-11-30T07:50:58.698Z,73.3
2022-11-30T07:56:36.738Z,75.6
2022-11-30T08:02:12.032Z,77.7
2022-11-30T08:07:50.218Z,79.5
2022-11-30T08:13:25.918Z,81
2022-11-30T08:19:10.576Z,83.2
2022-11-30T08:24:45.744Z,84.5
2022-11-30T08:30:32.385Z,84.1
2022-11-30T08:36:10.140Z,84
2022-11-30T08:41:45.064Z,82.8
2022-11-30T08:48:12.923Z,84.4
2022-11-30T08:53:45.821Z,84.3
2022-11-30T08:59:21.301Z,84
2022-11-30T09:04:56.839Z,83.2
2022-11-30T09:10:32.565Z,83.4
2022-11-30T09:16:08.513Z,82.8
2022-11-30T09:21:52.500Z,81.7
2022-11-30T09:27:28.485Z,82.8
2022-11-30T09:33:03.688Z,81.7
2022-11-30T09:38:39.281Z,80.4
2022-11-30T09:44:15.932Z,80.4
2022-11-30T09:49:52.230Z,79.3
2022-11-30T09:55:37.312Z,79.2
2022-11-30T10:01:12.787Z,79
2022-11-30T10:07:20.327Z,80.2
2022-11-30T10:12:59.955Z,80
2022-11-30T10:18:34.758Z,81.4
2022-11-30T10:24:10.710Z,77.6
2022-11-30T10:30:07.103Z,76.9
2022-11-30T10:35:42.094Z,77.7
2022-11-30T10:41:25.067Z,76.9
2022-11-30T10:47:22.243Z,75.9
2022-11-30T10:52:56.452Z,74.8
2022-11-30T10:58:38.752Z,74.4
2022-11-30T11:04:14.204Z,70.8
2022-11-30T11:09:50.923Z,71.2
2022-11-30T11:15:26.200Z,72
2022-11-30T11:21:07.092Z,71.7
2022-11-30T11:26:43.313Z,73.4
2022-11-30T11:32:18.479Z,69.6
2022-11-30T11:37:53.631Z,68.7
2022-11-30T11:43:28.644Z,68.1
2022-11-30T11:49:26.570Z,68.7
2022-11-30T11:54:59.835Z,70.9
2022-11-30T12:00:34.833Z,67.9
2022-11-30T12:06:09.927Z,65.7
2022-11-30T12:11:45.278Z,65.5
2022-11-30T12:17:21.344Z,66
2022-11-30T12:22:56.743Z,65.2
2022-11-30T12:28:32.482Z,65.8
2022-11-30T12:34:07.456Z,65
2022-11-30T12:39:43.853Z,63.4
2022-11-30T12:45:21.473Z,63.9
2022-11-30T12:50:57.500Z,64.4
2022-11-30T12:56:32.690Z,63.5
2022-11-30T13:02:08.315Z,63.9
2022-11-30T13:07:53.044Z,62.7
2022-11-30T13:13:29.356Z,63.4
2022-11-30T13:19:04.241Z,65.6
2022-11-30T13:24:39.053Z,64.3
2022-11-30T13:30:15.169Z,64.4
2022-11-30T13:35:51.182Z,63.4
2022-11-30T13:41:26.316Z,64.4
2022-11-30T13:47:23.066Z,63.9
2022-11-30T13:52:57.776Z,57.6
2022-11-30T13:58:34.852Z,56.3
2022-11-30T14:04:10.490Z,52
2022-11-30T14:09:47.090Z,44.9
2022-11-30T14:15:24.789Z,43.7
2022-11-30T14:21:00.662Z,52.4
2022-11-30T14:26:36.016Z,61.2
2022-11-30T14:32:11.176Z,62.3
2022-11-30T14:37:46.692Z,63
2022-11-30T14:43:22.136Z,66.2
2022-11-30T14:49:18.810Z,67.5
2022-11-30T14:54:52.078Z,68.9
2022-11-30T15:00:27.177Z,71.3
2022-11-30T15:06:02.726Z,73.1
2022-11-30T15:11:37.699Z,72.6
2022-11-30T15:17:12.759Z,73.8
2022-11-30T15:22:48.091Z,74.3
2022-11-30T15:28:23.024Z,75.2
2022-11-30T15:33:59.117Z,75.9
2022-11-30T15:39:34.612Z,74.9
2022-11-30T15:45:18.510Z,74.1
2022-11-30T15:50:53.444Z,75.6
2022-11-30T15:56:28.802Z,77.4
2022-11-30T16:02:04.679Z,77.3
2022-11-30T16:07:42.851Z,78.8
2022-11-30T16:13:18.694Z,76.6
2022-11-30T16:18:54.080Z,77.1
2022-11-30T16:24:29.510Z,78.4
2022-11-30T16:30:08.990Z,79.4
2022-11-30T16:35:44.028Z,80.3
2022-11-30T16:41:19.313Z,80.2
2022-11-30T16:47:16.059Z,81.4
2022-11-30T16:52:49.098Z,81.6
2022-11-30T16:58:24.892Z,82.1
2022-11-30T17:04:00.223Z,82.5
2022-11-30T17:09:35.729Z,77.9
2022-11-30T17:15:11.014Z,76.1
2022-11-30T17:20:50.405Z,75.1
2022-11-30T17:26:34.503Z,74.6
2022-11-30T17:32:12.094Z,74.1
2022-11-30T17:37:50.046Z,73.7
2022-11-30T17:43:25.234Z,73.3
2022-11-30T17:49:22.673Z,72.9
2022-11-30T17:54:56.979Z,72.8
2022-11-30T18:00:32.315Z,72.6
2022-11-30T18:06:09.947Z,72.2
2022-11-30T18:11:47.831Z,72.2
2022-11-30T18:17:23.368Z,71.9
2022-11-30T18:22:58.820Z,71.8
2022-11-30T18:28:33.927Z,71.5
2022-11-30T18:34:08.583Z,71.4
2022-11-30T18:39:44.768Z,71.3
2022-11-30T18:45:22.780Z,71.3
2022-11-30T18:50:57.869Z,71.4
2022-11-30T18:56:32.886Z,71.2
2022-11-30T19:02:08.153Z,71.5
2022-11-30T19:07:45.113Z,71.3
2022-11-30T19:13:41.602Z,71.2
2022-11-30T19:19:16.294Z,71.2
2022-11-30T19:24:59.640Z,71.2
2022-11-30T19:30:35.223Z,71.1
2022-11-30T19:36:10.977Z,71.3
2022-11-30T19:42:01.818Z,71.1
2022-11-30T19:47:40.103Z,70.8
2022-11-30T19:53:16.077Z,70.9
2022-11-30T19:59:06.257Z,70.7
2022-11-30T20:04:43.124Z,70.6
2022-11-30T20:10:19.148Z,70.6
2022-11-30T20:15:54.464Z,70.7
2022-11-30T20:21:30.755Z,70.4
2022-11-30T20:27:06.234Z,70.3
2022-11-30T20:32:42.936Z,70.4
2022-11-30T20:38:17.774Z,70.5
2022-11-30T20:43:52.998Z,70.4
2022-11-30T20:49:52.940Z,70.4
2022-11-30T20:55:25.584Z,70.5
2022-11-30T21:01:03.621Z,70.4
2022-11-30T21:06:38.665Z,70.4
2022-11-30T21:12:18.634Z,70.4
2022-11-30T21:19:28.023Z,70.5
2022-11-30T21:25:03.239Z,70.6
2022-11-30T21:30:39.682Z,70.6
2022-11-30T21:36:20.089Z,70.7
2022-11-30T21:41:54.846Z,70.6
2022-11-30T21:48:39.496Z,70.6
2022-11-30T21:54:12.127Z,70.8
2022-11-30T21:59:48.131Z,70.8
2022-11-30T22:05:26.821Z,70.7
2022-11-30T22:11:05.461Z,70.8
2022-11-30T22:17:09.633Z,70.9
2022-11-30T22:23:02.825Z,71
2022-11-30T22:28:40.454Z,71.1
2022-11-30T22:34:15.837Z,71.2
2022-11-30T22:39:51.555Z,71
2022-11-30T22:45:26.241Z,71
2022-11-30T22:51:01.418Z,70.9
2022-11-30T22:57:00.333Z,70.8
2022-11-30T23:02:35.903Z,70.8
2022-11-30T23:09:57.507Z,70.5
2022-11-30T23:15:32.234Z,70.6
2022-11-30T23:21:10.058Z,70.7
2022-11-30T23:26:45.095Z,70.8
2022-11-30T23:32:20.771Z,70.6
2022-11-30T23:37:56.849Z,70.6
2022-11-30T23:43:42.300Z,70.6
2022-11-30T23:49:39.095Z,70.3
2022-11-30T23:55:11.965Z,70.5
